Time;durP1;ratioP1;P1;durP2;ratioP2;P2;SDS_P1;SDS_P2;PMS_P1;PMS_P2;Temp;Humidity;BMP_temperature;BMP_pressure;BME280_temperature;BME280_humidity;BME280_pressure;Samples;Min_cycle;Max_cycle;Signal;HPM_P1;HPM_P2
2023/10/30 00:07:09;;;;;;;;;;;13.00;99.90;;;;;;4832421;29;20024;-78
2023/10/30 00:14:04;;;;;;;;;;;13.00;99.90;;;;;;4844494;29;19979;-79
2023/10/30 00:34:11;;;;;;;;;;;;;;;;;;;;;
2023/10/30 00:55:18;;;;;;;;;;;12.90;99.90;;;;;;4779971;30;19921;-79
2023/10/30 00:58:08;;;;;;;;;;;12.90;99.90;;;;;;4764816;30;19913;-77
2023/10/30 01:08:15;;;;;;;;;;;12.90;99.90;;;;;;4724385;30;19929;-79
2023/10/30 01:11:02;;;;;;;;;;;12.80;99.90;;;;;;4723907;30;19915;-77
2023/10/30 01:20:47;;;;;;;;;;;12.90;99.90;;;;;;4797540;29;19956;-79
2023/10/30 01:23:38;;;;;;;;;;;12.90;99.90;;;;;;4797158;30;19953;-79
2023/10/30 01:26:13;;;;;;;;;;;12.90;99.90;;;;;;4767019;30;20175;-80
2023/10/30 07:42:09;;;;;;;;;;;12.40;99.90;;;;;;4872367;29;20110;-80
2023/10/30 07:44:36;;;;;;;;;;;12.50;99.90;;;;;;4852147;29;19920;-80
2023/10/30 07:47:33;;;;;;;;;;;12.60;99.90;;;;;;4864460;29;19957;-80
2023/10/30 07:50:00;;;;;;;;;;;12.70;99.90;;;;;;4850600;29;19912;-78
2023/10/30 07:53:15;;;;;;;;;;;12.70;99.90;;;;;;4867898;29;19983;-76
2023/10/30 07:55:41;;;;;;;;;;;12.80;99.90;;;;;;4865396;29;19983;-79
2023/10/30 07:58:10;;;;;;;;;;;12.80;99.90;;;;;;4847909;29;19919;-79
2023/10/30 08:01:18;;;;;;;;;;;12.90;99.90;;;;;;4866894;29;20119;-79
2023/10/30 08:03:47;;;;;;;;;;;13.00;99.90;;;;;;4866613;29;20019;-79
2023/10/30 08:06:27;;;;;;;;;;;13.00;99.90;;;;;;4850523;29;19941;-76
2023/10/30 08:12:19;;;;;;;;;;;13.10;99.90;;;;;;4851351;29;19912;-82
2023/10/30 08:14:59;;;;;;;;;;;13.20;99.90;;;;;;4803612;29;20174;-79
2023/10/30 08:17:25;;;;;;;;;;;13.20;99.90;;;;;;4817701;29;19913;-78
2023/10/30 08:19:55;;;;;;;;;;;13.30;99.90;;;;;;4836059;29;20021;-75
2023/10/30 08:22:21;;;;;;;;;;;13.30;99.90;;;;;;4833575;29;20109;-77
2023/10/30 08:24:59;;;;;;;;;;;13.30;99.90;;;;;;4846981;29;19908;-77
2023/10/30 08:27:31;;;;;;;;;;;13.40;99.90;;;;;;4862209;29;19916;-77
2023/10/30 08:29:57;;;;;;;;;;;13.50;99.90;;;;;;4851797;29;19912;-78
2023/10/30 08:32:23;;;;;;;;;;;13.60;99.90;;;;;;4840517;29;20150;-77
2023/10/30 08:34:48;;;;;;;;;;;13.70;99.90;;;;;;4869005;29;19919;-77
2023/10/30 08:37:20;;;;;;;;;;;13.80;99.90;;;;;;4853074;29;19931;-77
2023/10/30 08:39:45;;;;;;;;;;;13.90;99.90;;;;;;4837903;29;19995;-78
2023/10/30 08:42:14;;;;;;;;;;;13.90;99.90;;;;;;4854603;29;20206;-82
2023/10/30 08:44:42;;;;;;;;;;;14.00;99.90;;;;;;4854711;29;19912;-78
2023/10/30 08:47:08;;;;;;;;;;;14.00;99.90;;;;;;4850322;29;19923;-78
2023/10/30 08:49:34;;;;;;;;;;;14.10;99.90;;;;;;4879827;29;19911;-76
2023/10/30 08:51:59;;;;;;;;;;;14.10;99.90;;;;;;4868255;29;19990;-77
2023/10/30 08:54:25;;;;;;;;;;;14.20;99.90;;;;;;4890487;29;20392;-77
2023/10/30 08:56:51;;;;;;;;;;;14.30;99.90;;;;;;4889445;29;19986;-76
2023/10/30 08:59:17;;;;;;;;;;;14.40;99.90;;;;;;4893700;29;19911;-75
2023/10/30 09:01:42;;;;;;;;;;;14.50;99.90;;;;;;4902869;29;19915;-75
2023/10/30 09:04:20;;;;;;;;;;;14.60;99.90;;;;;;4872600;29;19911;-76
2023/10/30 09:06:52;;;;;;;;;;;14.70;99.90;;;;;;4869769;29;20061;-77
2023/10/30 09:09:18;;;;;;;;;;;14.80;99.90;;;;;;4881973;29;19977;-77
2023/10/30 09:11:44;;;;;;;;;;;14.90;99.90;;;;;;4899286;29;19911;-77
2023/10/30 09:14:10;;;;;;;;;;;14.90;99.90;;;;;;4862218;29;19907;-76
2023/10/30 09:16:36;;;;;;;;;;;14.90;99.90;;;;;;4883525;29;19966;-78
2023/10/30 09:19:01;;;;;;;;;;;14.90;99.90;;;;;;4889414;29;19943;-76
2023/10/30 09:21:27;;;;;;;;;;;14.90;99.90;;;;;;4886940;29;20098;-76
2023/10/30 09:23:53;;;;;;;;;;;15.00;99.90;;;;;;4903488;29;19916;-75
2023/10/30 09:26:21;;;;;;;;;;;15.10;99.90;;;;;;4884358;29;19920;-76
2023/10/30 09:28:47;;;;;;;;;;;15.20;99.90;;;;;;4899245;29;19915;-76
2023/10/30 09:31:12;;;;;;;;;;;15.30;99.90;;;;;;4904838;29;19911;-76
2023/10/30 09:33:38;;;;;;;;;;;15.40;99.90;;;;;;4882879;29;19987;-77
2023/10/30 09:36:12;;;;;;;;;;;15.50;99.90;;;;;;4900411;29;19955;-76
2023/10/30 09:38:39;;;;;;;;;;;15.60;99.90;;;;;;4901859;29;19924;-76
2023/10/30 09:41:19;;;;;;;;;;;15.60;99.90;;;;;;4870166;29;20187;-78
2023/10/30 09:43:52;;;;;;;;;;;15.60;99.90;;;;;;4870159;29;19911;-76
2023/10/30 09:46:21;;;;;;;;;;;15.70;99.90;;;;;;4885514;29;20201;-77
2023/10/30 09:49:04;;;;;;;;;;;15.80;99.90;;;;;;4902474;29;20114;-77
2023/10/30 09:51:33;;;;;;;;;;;15.90;99.90;;;;;;4881424;29;20185;-79
2023/10/30 09:54:05;;;;;;;;;;;16.10;99.90;;;;;;4862543;29;19912;-78
2023/10/30 09:56:32;;;;;;;;;;;16.20;99.90;;;;;;4911884;29;19920;-79
2023/10/30 09:59:20;;;;;;;;;;;16.30;99.90;;;;;;4921437;29;19946;-78
2023/10/30 10:01:59;;;;;;;;;;;16.40;99.90;;;;;;4890430;29;19938;-78
2023/10/30 10:04:50;;;;;;;;;;;16.40;99.90;;;;;;4891934;29;19918;-79
2023/10/30 10:07:17;;;;;;;;;;;16.70;99.90;;;;;;4879328;29;19923;-80
2023/10/30 10:09:56;;;;;;;;;;;16.60;99.90;;;;;;4872560;29;19979;-79
2023/10/30 10:12:21;;;;;;;;;;;16.70;99.90;;;;;;4884307;29;19919;-79
2023/10/30 10:14:47;;;;;;;;;;;16.80;99.90;;;;;;4897266;29;19915;-78
2023/10/30 10:17:12;;;;;;;;;;;16.90;99.90;;;;;;4890348;29;19914;-78
2023/10/30 10:22:45;;;;;;;;;;;17.00;99.90;;;;;;4881783;29;20161;-78
2023/10/30 10:25:15;;;;;;;;;;;17.20;99.90;;;;;;4887442;29;19918;-78
2023/10/30 10:27:57;;;;;;;;;;;17.40;99.90;;;;;;4874719;29;19919;-78
2023/10/30 10:30:59;;;;;;;;;;;17.50;99.90;;;;;;4890115;29;19922;-80
2023/10/30 10:33:28;;;;;;;;;;;17.80;99.90;;;;;;4886281;29;20100;-78
2023/10/30 10:46:30;;;;;;;;;;;18.30;99.50;;;;;;4860793;29;19920;-79
2023/10/30 10:48:56;;;;;;;;;;;18.20;99.10;;;;;;4849485;29;19920;-78
2023/10/30 10:51:59;;;;;;;;;;;18.20;99.00;;;;;;4844653;29;19908;-78
2023/10/30 10:54:51;;;;;;;;;;;18.20;99.00;;;;;;4793300;29;19913;-78
2023/10/30 10:57:19;;;;;;;;;;;18.10;98.80;;;;;;4793712;29;19913;-78
2023/10/30 11:00:16;;;;;;;;;;;;;;;;;;;;;
2023/10/30 11:02:40;;;;;;;;;;;18.10;99.00;;;;;;4816094;29;19985;-78
2023/10/30 11:05:05;;;;;;;;;;;18.10;98.90;;;;;;4827511;29;19931;-78
2023/10/30 11:08:00;;;;;;;;;;;18.00;98.00;;;;;;4826065;29;19917;-78
2023/10/30 11:10:51;;;;;;;;;;;;;;;;;;;;;
2023/10/30 11:13:33;;;;;;;;;;;17.80;97.20;;;;;;4832898;29;19919;-78
2023/10/30 11:16:19;;;;;;;;;;;17.80;96.90;;;;;;4817612;29;19944;-78
2023/10/30 11:18:54;;;;;;;;;;;17.70;96.90;;;;;;4816211;29;19927;-78
2023/10/30 11:21:47;;;;;;;;;;;17.70;97.20;;;;;;4817236;29;20102;-78
2023/10/30 11:24:39;;;;;;;;;;;17.90;96.90;;;;;;4812882;29;19953;-78
2023/10/30 11:27:25;;;;;;;;;;;17.80;96.70;;;;;;4818999;29;19940;-78
2023/10/30 11:30:00;;;;;;;;;;;17.60;96.60;;;;;;4844307;29;19942;-77
2023/10/30 11:32:52;;;;;;;;;;;17.60;96.80;;;;;;4881045;29;20184;-78
2023/10/30 11:35:50;;;;;;;;;;;17.60;97.00;;;;;;4869340;29;20046;-79
2023/10/30 11:38:22;;;;;;;;;;;17.60;97.10;;;;;;4789153;30;20244;-78
2023/10/30 11:41:03;;;;;;;;;;;17.60;97.20;;;;;;4776084;30;19945;-78
2023/10/30 11:43:41;;;;;;;;;;;17.40;96.60;;;;;;4794385;30;19941;-76
2023/10/30 11:46:09;;;;;;;;;;;17.40;96.70;;;;;;4778560;30;19921;-79
2023/10/30 11:48:38;;;;;;;;;;;17.30;96.60;;;;;;4808752;29;20008;-77
2023/10/30 11:51:04;;;;;;;;;;;17.30;97.00;;;;;;4871094;29;20302;-78
2023/10/30 11:53:39;;;;;;;;;;;17.30;97.00;;;;;;4877615;29;19908;-77
2023/10/30 11:56:13;;;;;;;;;;;17.30;96.80;;;;;;4878076;29;19912;-78
2023/10/30 11:58:40;;;;;;;;;;;17.30;96.90;;;;;;4866934;29;19959;-78
2023/10/30 12:01:09;;;;;;;;;;;17.30;96.90;;;;;;4878415;29;19907;-77
2023/10/30 12:03:37;;;;;;;;;;;17.30;96.90;;;;;;4886648;29;19950;-77
2023/10/30 12:06:04;;;;;;;;;;;17.30;96.80;;;;;;4877588;29;19911;-77
2023/10/30 12:08:32;;;;;;;;;;;17.40;96.90;;;;;;4874160;29;19912;-77
2023/10/30 12:10:58;;;;;;;;;;;17.40;96.60;;;;;;4864072;29;19990;-77
2023/10/30 12:13:24;;;;;;;;;;;17.50;97.00;;;;;;4871036;29;19918;-78
2023/10/30 12:15:53;;;;;;;;;;;17.70;97.00;;;;;;4872947;29;20001;-77
2023/10/30 12:18:25;;;;;;;;;;;18.10;97.00;;;;;;4891340;29;19978;-78
2023/10/30 12:20:50;;;;;;;;;;;18.50;96.00;;;;;;4885194;29;19912;-76
2023/10/30 12:23:16;;;;;;;;;;;18.80;95.20;;;;;;4891636;29;19911;-77
2023/10/30 12:25:43;;;;;;;;;;;19.00;94.50;;;;;;4888761;29;19922;-77
2023/10/30 12:28:09;;;;;;;;;;;19.00;94.00;;;;;;4866258;29;19915;-77
2023/10/30 12:30:36;;;;;;;;;;;19.10;93.90;;;;;;4868543;29;19908;-76
2023/10/30 12:33:05;;;;;;;;;;;19.20;93.80;;;;;;4875638;29;19912;-77
2023/10/30 12:35:31;;;;;;;;;;;19.20;93.50;;;;;;4897243;29;19912;-76
2023/10/30 12:38:00;;;;;;;;;;;19.20;93.70;;;;;;4871029;29;19988;-75
2023/10/30 12:40:28;;;;;;;;;;;19.20;93.60;;;;;;4898281;29;19943;-76
2023/10/30 12:42:55;;;;;;;;;;;18.90;92.40;;;;;;4870934;29;19919;-77
2023/10/30 12:45:24;;;;;;;;;;;18.50;92.80;;;;;;4871889;29;19920;-76
2023/10/30 12:47:50;;;;;;;;;;;18.30;93.60;;;;;;4894204;29;19994;-76
2023/10/30 12:50:17;;;;;;;;;;;18.40;94.10;;;;;;4869979;29;19911;-77
2023/10/30 12:52:43;;;;;;;;;;;18.50;93.40;;;;;;4864048;29;20128;-77
2023/10/30 12:55:09;;;;;;;;;;;18.50;93.30;;;;;;4871799;29;19919;-78
2023/10/30 12:57:41;;;;;;;;;;;18.60;93.20;;;;;;4888944;29;19935;-78
2023/10/30 13:00:11;;;;;;;;;;;18.50;93.00;;;;;;4876010;29;19907;-76
2023/10/30 13:02:40;;;;;;;;;;;18.60;93.00;;;;;;4875740;29;20019;-77
2023/10/30 13:05:11;;;;;;;;;;;18.60;92.60;;;;;;4900185;29;19912;-76
2023/10/30 13:07:37;;;;;;;;;;;18.50;92.80;;;;;;4873260;29;19923;-77
2023/10/30 13:10:09;;;;;;;;;;;18.40;93.10;;;;;;4868865;29;19978;-78
2023/10/30 13:12:39;;;;;;;;;;;18.20;93.30;;;;;;4867745;29;19918;-79
2023/10/30 13:15:06;;;;;;;;;;;18.10;93.80;;;;;;4875083;29;19919;-77
2023/10/30 13:17:35;;;;;;;;;;;18.00;93.50;;;;;;4876701;29;19912;-78
2023/10/30 13:20:05;;;;;;;;;;;17.90;93.60;;;;;;4905920;29;19907;-74
2023/10/30 13:22:32;;;;;;;;;;;17.70;94.10;;;;;;4874781;29;19911;-75
2023/10/30 13:25:03;;;;;;;;;;;17.70;94.20;;;;;;4869073;29;19923;-76
2023/10/30 13:27:30;;;;;;;;;;;17.60;94.20;;;;;;4866715;29;19942;-78
2023/10/30 13:29:57;;;;;;;;;;;17.70;94.20;;;;;;4874593;29;19911;-77
2023/10/30 13:32:24;;;;;;;;;;;17.80;94.20;;;;;;4887249;29;19912;-75
2023/10/30 13:34:50;;;;;;;;;;;17.80;94.30;;;;;;4873868;29;19957;-77
2023/10/30 13:37:19;;;;;;;;;;;17.70;94.40;;;;;;4869019;29;19918;-76
2023/10/30 13:39:46;;;;;;;;;;;17.70;94.50;;;;;;4877273;29;19920;-76
2023/10/30 13:42:14;;;;;;;;;;;17.70;94.30;;;;;;4866055;29;20213;-77
2023/10/30 13:44:40;;;;;;;;;;;17.80;94.50;;;;;;4877520;29;20242;-78
2023/10/30 13:47:09;;;;;;;;;;;17.70;94.30;;;;;;4868780;29;19922;-78
2023/10/30 13:49:43;;;;;;;;;;;17.70;94.40;;;;;;4879633;29;19915;-79
2023/10/30 13:52:09;;;;;;;;;;;17.70;94.60;;;;;;4878831;29;19919;-76
2023/10/30 13:54:40;;;;;;;;;;;17.60;94.60;;;;;;4854371;29;20113;-77
2023/10/30 13:57:07;;;;;;;;;;;17.50;94.50;;;;;;4885901;29;20108;-77
2023/10/30 13:59:33;;;;;;;;;;;17.40;94.70;;;;;;4856917;29;20174;-76
2023/10/30 14:01:59;;;;;;;;;;;17.40;95.00;;;;;;4879638;29;19930;-77
2023/10/30 14:04:26;;;;;;;;;;;17.30;95.10;;;;;;4867869;29;20134;-77
2023/10/30 14:06:53;;;;;;;;;;;17.30;95.30;;;;;;4856659;29;19916;-77
2023/10/30 14:09:31;;;;;;;;;;;17.40;95.30;;;;;;4856338;29;19912;-77
2023/10/30 14:12:07;;;;;;;;;;;17.40;95.10;;;;;;4857827;29;19920;-77
2023/10/30 14:14:35;;;;;;;;;;;17.40;95.00;;;;;;4848004;29;20286;-77
2023/10/30 14:17:13;;;;;;;;;;;17.50;94.90;;;;;;4868272;29;20075;-77
2023/10/30 14:20:00;;;;;;;;;;;17.50;94.80;;;;;;4869699;29;20129;-76
2023/10/30 14:22:31;;;;;;;;;;;17.50;95.00;;;;;;4880939;29;19916;-78
2023/10/30 14:25:00;;;;;;;;;;;17.50;94.80;;;;;;4880209;29;20182;-77
2023/10/30 14:27:28;;;;;;;;;;;17.60;94.90;;;;;;4882327;29;19916;-76
2023/10/30 14:29:54;;;;;;;;;;;17.60;94.90;;;;;;4879659;29;19912;-77
2023/10/30 14:32:19;;;;;;;;;;;17.60;94.80;;;;;;4889317;29;19974;-76
2023/10/30 14:34:51;;;;;;;;;;;17.50;95.10;;;;;;4881472;29;19955;-80
2023/10/30 14:37:29;;;;;;;;;;;17.30;95.10;;;;;;4876193;29;19920;-76
2023/10/30 14:39:54;;;;;;;;;;;17.20;95.50;;;;;;4879071;29;19915;-77
2023/10/30 14:42:20;;;;;;;;;;;17.00;95.90;;;;;;4877103;29;19919;-78
2023/10/30 14:44:46;;;;;;;;;;;16.90;96.10;;;;;;4876618;29;20201;-76
2023/10/30 14:47:15;;;;;;;;;;;16.80;96.00;;;;;;4876887;29;19927;-77
2023/10/30 14:49:46;;;;;;;;;;;16.70;96.10;;;;;;4884122;29;20098;-79
2023/10/30 14:55:29;;;;;;;;;;;16.70;96.40;;;;;;4815297;29;20184;-78
2023/10/30 14:57:57;;;;;;;;;;;16.70;96.40;;;;;;4858110;29;19908;-78
2023/10/30 15:00:32;;;;;;;;;;;16.70;96.60;;;;;;4847466;29;19912;-78
2023/10/30 15:03:23;;;;;;;;;;;16.60;96.30;;;;;;4861706;29;20174;-78
2023/10/30 15:05:55;;;;;;;;;;;16.70;96.40;;;;;;4844899;29;19919;-79
2023/10/30 15:08:43;;;;;;;;;;;16.70;96.50;;;;;;4850443;29;19999;-77
2023/10/30 15:11:18;;;;;;;;;;;16.70;96.30;;;;;;4852279;29;19912;-78
2023/10/30 15:14:26;;;;;;;;;;;;;;;;;;;;;
2023/10/30 15:20:26;;;;;;;;;;;16.60;96.70;;;;;;4868373;29;20201;-79
2023/10/30 15:23:13;;;;;;;;;;;16.50;96.50;;;;;;4841536;29;19919;-79
2023/10/30 15:26:06;;;;;;;;;;;16.50;97.10;;;;;;4853148;29;19923;-78
2023/10/30 15:29:04;;;;;;;;;;;16.40;96.60;;;;;;4864293;29;19980;-78
2023/10/30 15:31:45;;;;;;;;;;;16.30;96.90;;;;;;4811491;29;19919;-80
2023/10/30 15:34:14;;;;;;;;;;;16.30;97.10;;;;;;4893421;29;19959;-78
2023/10/30 15:36:42;;;;;;;;;;;16.20;97.20;;;;;;4911106;29;19915;-79
2023/10/30 15:39:33;;;;;;;;;;;16.10;97.40;;;;;;4909449;29;19923;-80
2023/10/30 15:42:25;;;;;;;;;;;16.10;98.00;;;;;;4905761;29;19934;-79
2023/10/30 15:44:54;;;;;;;;;;;16.10;97.90;;;;;;4896995;29;19911;-78
2023/10/30 15:47:26;;;;;;;;;;;16.00;97.90;;;;;;4911357;29;19962;-79
2023/10/30 15:50:06;;;;;;;;;;;16.00;98.60;;;;;;4912729;29;19911;-79
2023/10/30 15:52:53;;;;;;;;;;;16.00;98.10;;;;;;4897319;29;19911;-78
2023/10/30 15:55:22;;;;;;;;;;;15.90;98.90;;;;;;4912868;29;19911;-78
2023/10/30 15:57:48;;;;;;;;;;;15.80;99.00;;;;;;4913039;29;19911;-77
2023/10/30 16:03:55;;;;;;;;;;;15.70;99.50;;;;;;4909351;29;20204;-79
2023/10/30 16:06:56;;;;;;;;;;;;;;;;;;;;;
2023/10/30 16:13:12;;;;;;;;;;;15.60;99.90;;;;;;4911988;29;20090;-82
2023/10/30 16:15:41;;;;;;;;;;;15.60;99.90;;;;;;4900359;29;19918;-78
2023/10/30 16:20:56;;;;;;;;;;;15.50;99.90;;;;;;4913044;29;19914;-79
2023/10/30 16:26:46;;;;;;;;;;;15.50;99.90;;;;;;4931212;29;19922;-82
2023/10/30 16:43:35;;;;;;;;;;;15.20;99.90;;;;;;4852656;29;19920;-81
2023/10/30 16:46:00;;;;;;;;;;;15.20;99.90;;;;;;4855649;29;19980;-81
2023/10/30 16:48:48;;;;;;;;;;;15.10;99.90;;;;;;4899316;29;20017;-80
2023/10/30 16:55:02;;;;;;;;;;;15.10;99.90;;;;;;4911648;29;19912;-82
2023/10/30 17:01:18;;;;;;;;;;;15.00;99.90;;;;;;4915110;29;20227;-77
2023/10/30 17:03:44;;;;;;;;;;;15.00;99.90;;;;;;4928724;29;20153;-80
2023/10/30 17:06:29;;;;;;;;;;;14.90;99.90;;;;;;4912072;29;19910;-80
2023/10/30 17:12:35;;;;;;;;;;;14.80;99.90;;;;;;4928554;29;19918;-81
2023/10/30 17:29:02;;;;;;;;;;;14.80;99.90;;;;;;4932787;29;19965;-82
2023/10/30 17:38:52;;;;;;;;;;;14.60;99.90;;;;;;4883581;29;19993;-78
2023/10/30 17:41:42;;;;;;;;;;;14.50;99.90;;;;;;4873039;29;19921;-79
2023/10/30 17:47:43;;;;;;;;;;;14.50;99.90;;;;;;4857964;29;20220;-80
2023/10/30 17:54:11;;;;;;;;;;;14.40;99.90;;;;;;4854983;29;20225;-80
2023/10/30 17:56:55;;;;;;;;;;;14.50;99.90;;;;;;4818969;29;19913;-80
2023/10/30 18:05:59;;;;;;;;;;;14.50;99.90;;;;;;4802052;30;19921;-79
2023/10/30 18:08:25;;;;;;;;;;;14.50;99.90;;;;;;4799538;30;19917;-78
2023/10/30 18:10:58;;;;;;;;;;;14.50;99.90;;;;;;4798351;29;20148;-79
2023/10/30 18:13:23;;;;;;;;;;;14.50;99.90;;;;;;4826602;29;19924;-79
2023/10/30 18:34:19;;;;;;;;;;;14.20;99.90;;;;;;4892284;29;20105;-80
2023/10/30 18:40:45;;;;;;;;;;;14.10;99.90;;;;;;4903612;29;19976;-81
2023/10/30 18:43:44;;;;;;;;;;;14.10;99.90;;;;;;4907059;29;19923;-79
2023/10/30 18:49:58;;;;;;;;;;;14.10;99.90;;;;;;4832556;29;19999;-82
2023/10/30 18:56:37;;;;;;;;;;;;;;;;;;;;;
2023/10/30 19:00:15;;;;;;;;;;;;;;;;;;;;;
2023/10/30 19:13:32;;;;;;;;;;;13.70;99.90;;;;;;4836135;29;19979;-80
2023/10/30 19:16:04;;;;;;;;;;;13.60;99.90;;;;;;4849128;29;20130;-77
2023/10/30 19:19:04;;;;;;;;;;;13.60;99.90;;;;;;4832156;29;19970;-82
2023/10/30 19:21:31;;;;;;;;;;;13.60;99.90;;;;;;4831722;29;20001;-81
2023/10/30 19:24:37;;;;;;;;;;;13.60;99.90;;;;;;4836934;29;20154;-79
2023/10/30 19:30:53;;;;;;;;;;;13.60;99.90;;;;;;4897784;29;19918;-79
2023/10/30 19:33:19;;;;;;;;;;;13.60;99.90;;;;;;4887299;29;20242;-79
2023/10/30 19:35:48;;;;;;;;;;;13.60;99.90;;;;;;4903946;29;19920;-80
2023/10/30 19:38:19;;;;;;;;;;;13.50;99.90;;;;;;4904271;29;20212;-79
2023/10/30 19:44:21;;;;;;;;;;;13.50;99.90;;;;;;4910995;29;19949;-80
2023/10/30 19:46:53;;;;;;;;;;;13.40;99.90;;;;;;4910555;29;19919;-80
2023/10/30 19:49:18;;;;;;;;;;;13.40;99.90;;;;;;4926839;29;19911;-78
2023/10/30 19:51:53;;;;;;;;;;;13.40;99.90;;;;;;4909900;29;19915;-81
2023/10/30 19:57:26;;;;;;;;;;;13.40;99.90;;;;;;4829574;29;19917;-80
2023/10/30 20:00:07;;;;;;;;;;;13.30;99.90;;;;;;4916261;29;19919;-80
2023/10/30 20:06:10;;;;;;;;;;;13.20;99.90;;;;;;4927485;29;19955;-79
2023/10/30 20:12:19;;;;;;;;;;;13.30;99.90;;;;;;4868747;29;19959;-81
2023/10/30 20:17:49;;;;;;;;;;;13.30;99.90;;;;;;4872439;29;20217;-80
2023/10/30 20:20:52;;;;;;;;;;;13.30;99.90;;;;;;4859179;29;19912;-81
2023/10/30 20:26:48;;;;;;;;;;;13.20;99.90;;;;;;4872390;29;19962;-80
2023/10/30 20:32:49;;;;;;;;;;;13.30;99.90;;;;;;4867542;29;19968;-80
2023/10/30 20:35:31;;;;;;;;;;;13.20;99.90;;;;;;4871876;29;19912;-80
2023/10/30 20:38:28;;;;;;;;;;;13.20;99.90;;;;;;4855612;29;19919;-81
2023/10/30 20:48:31;;;;;;;;;;;13.00;99.90;;;;;;4875112;29;19927;-81
2023/10/30 20:50:57;;;;;;;;;;;13.00;99.90;;;;;;4900721;29;19919;-81
2023/10/30 20:53:48;;;;;;;;;;;12.90;99.90;;;;;;4895501;29;19935;-78
2023/10/30 20:56:15;;;;;;;;;;;13.00;99.90;;;;;;4911083;29;20164;-81
2023/10/30 20:59:05;;;;;;;;;;;12.90;99.90;;;;;;4910806;29;19942;-80
2023/10/30 21:01:37;;;;;;;;;;;12.90;99.90;;;;;;4920360;29;19915;-78
2023/10/30 21:04:03;;;;;;;;;;;12.90;99.90;;;;;;4915212;29;19911;-80
2023/10/30 21:07:09;;;;;;;;;;;13.00;99.90;;;;;;4889799;29;19926;-78
2023/10/30 21:09:36;;;;;;;;;;;12.90;99.90;;;;;;4889681;29;19912;-81
2023/10/30 21:12:35;;;;;;;;;;;12.90;99.90;;;;;;4875562;29;19942;-79
2023/10/30 21:15:07;;;;;;;;;;;12.90;99.90;;;;;;4858382;29;19912;-79
2023/10/30 21:17:58;;;;;;;;;;;12.90;99.90;;;;;;4893727;29;20035;-81
2023/10/30 21:20:32;;;;;;;;;;;12.90;99.90;;;;;;4882723;29;19912;-79
2023/10/30 21:23:03;;;;;;;;;;;12.80;99.90;;;;;;4876638;29;19919;-79
2023/10/30 21:25:54;;;;;;;;;;;12.80;99.90;;;;;;4873638;29;19918;-81
2023/10/30 21:28:48;;;;;;;;;;;12.70;99.90;;;;;;4877521;29;19923;-82
2023/10/30 21:31:41;;;;;;;;;;;12.70;99.90;;;;;;4858639;29;19960;-79
2023/10/30 21:34:13;;;;;;;;;;;12.70;99.90;;;;;;4873974;29;19912;-80
2023/10/30 21:37:03;;;;;;;;;;;12.60;99.90;;;;;;4873314;29;20012;-80
2023/10/30 21:39:35;;;;;;;;;;;12.70;99.90;;;;;;4902836;29;19919;-80
2023/10/30 21:42:00;;;;;;;;;;;12.60;99.90;;;;;;4875720;29;20216;-80
2023/10/30 21:44:27;;;;;;;;;;;12.60;99.90;;;;;;4875621;29;19957;-78
2023/10/30 21:47:09;;;;;;;;;;;12.70;99.90;;;;;;4923543;29;20248;-79
2023/10/30 21:49:47;;;;;;;;;;;12.70;99.90;;;;;;4911808;29;20193;-80
2023/10/30 21:52:14;;;;;;;;;;;12.70;99.90;;;;;;4898095;29;19922;-80
2023/10/30 21:58:12;;;;;;;;;;;12.60;99.90;;;;;;4912979;29;20131;-79
2023/10/30 22:00:50;;;;;;;;;;;12.60;99.90;;;;;;4894879;29;20002;-79
2023/10/30 22:03:16;;;;;;;;;;;12.60;99.90;;;;;;4896881;29;19951;-79
2023/10/30 22:05:47;;;;;;;;;;;12.60;99.90;;;;;;4928104;29;19915;-79
2023/10/30 22:08:16;;;;;;;;;;;12.60;99.90;;;;;;4911400;29;19922;-80
2023/10/30 22:11:10;;;;;;;;;;;;;;;;;;;;;
2023/10/30 22:13:43;;;;;;;;;;;12.60;99.90;;;;;;4893853;29;20118;-81
2023/10/30 22:16:10;;;;;;;;;;;12.60;99.90;;;;;;4922658;29;19911;-80
2023/10/30 22:18:38;;;;;;;;;;;12.60;99.90;;;;;;4927816;29;19916;-80
2023/10/30 22:21:22;;;;;;;;;;;12.60;99.90;;;;;;4910959;29;19907;-80
2023/10/30 22:24:07;;;;;;;;;;;12.60;99.90;;;;;;4872264;29;19915;-79
2023/10/30 22:26:33;;;;;;;;;;;12.50;99.90;;;;;;4870009;29;19912;-80
2023/10/30 22:29:26;;;;;;;;;;;12.40;99.90;;;;;;4854949;29;19944;-80
2023/10/30 22:31:54;;;;;;;;;;;12.40;99.90;;;;;;4871493;29;19939;-79
2023/10/30 22:34:20;;;;;;;;;;;12.40;99.90;;;;;;4888025;29;19930;-78
2023/10/30 22:36:46;;;;;;;;;;;12.40;99.90;;;;;;4885338;29;20206;-79
2023/10/30 22:39:35;;;;;;;;;;;12.30;99.90;;;;;;4884306;29;19926;-80
2023/10/30 22:42:03;;;;;;;;;;;12.40;99.90;;;;;;4865021;29;19986;-79
2023/10/30 22:44:29;;;;;;;;;;;12.30;99.90;;;;;;4898110;29;19986;-79
2023/10/30 22:47:00;;;;;;;;;;;12.40;99.90;;;;;;4927484;29;19918;-79
2023/10/30 22:49:33;;;;;;;;;;;12.40;99.90;;;;;;4909572;29;19926;-79
2023/10/30 22:51:59;;;;;;;;;;;12.40;99.90;;;;;;4909916;29;19911;-80
2023/10/30 22:54:43;;;;;;;;;;;12.30;99.90;;;;;;4917202;29;19934;-81
2023/10/30 22:57:46;;;;;;;;;;;12.30;99.90;;;;;;4891266;29;19956;-80
2023/10/30 23:00:42;;;;;;;;;;;12.30;99.90;;;;;;4876090;29;19917;-79
2023/10/30 23:04:04;;;;;;;;;;;12.20;99.90;;;;;;4888938;29;20022;-78
2023/10/30 23:06:59;;;;;;;;;;;12.20;99.90;;;;;;4908090;29;20209;-81
2023/10/30 23:09:49;;;;;;;;;;;12.20;99.90;;;;;;4894942;29;19917;-81
2023/10/30 23:12:15;;;;;;;;;;;12.20;99.90;;;;;;4891839;29;19935;-80
2023/10/30 23:15:10;;;;;;;;;;;12.20;99.90;;;;;;4881634;29;19942;-79
2023/10/30 23:17:35;;;;;;;;;;;12.30;99.90;;;;;;4893495;29;19920;-81
2023/10/30 23:20:20;;;;;;;;;;;12.20;99.90;;;;;;4910169;29;20209;-80
2023/10/30 23:23:12;;;;;;;;;;;12.20;99.90;;;;;;4832628;29;20072;-78
2023/10/30 23:25:49;;;;;;;;;;;12.20;99.90;;;;;;4850346;29;19953;-80
2023/10/30 23:31:08;;;;;;;;;;;12.20;99.90;;;;;;4850673;29;19954;-78
2023/10/30 23:33:58;;;;;;;;;;;12.20;99.90;;;;;;4850011;29;19912;-79
2023/10/30 23:36:33;;;;;;;;;;;12.20;99.90;;;;;;4814550;29;20121;-78
2023/10/30 23:39:29;;;;;;;;;;;12.20;99.90;;;;;;4834632;29;19913;-79
2023/10/30 23:41:54;;;;;;;;;;;12.20;99.90;;;;;;4850167;29;20141;-78
2023/10/30 23:44:29;;;;;;;;;;;12.10;99.90;;;;;;4835219;29;19920;-80
2023/10/30 23:47:00;;;;;;;;;;;12.10;99.90;;;;;;4850527;29;19920;-81
2023/10/30 23:49:26;;;;;;;;;;;12.10;99.90;;;;;;4854187;29;19916;-82
2023/10/30 23:52:17;;;;;;;;;;;12.10;99.90;;;;;;4854528;29;19961;-81
2023/10/30 23:55:14;;;;;;;;;;;12.10;99.90;;;;;;4854297;29;20106;-82
2023/10/30 23:57:49;;;;;;;;;;;12.10;99.90;;;;;;4851051;29;19913;-79
